Time;durP1;ratioP1;P1;durP2;ratioP2;P2;SDS_P1;SDS_P2;PMS_P1;PMS_P2;Temp;Humidity;BMP_temperature;BMP_pressure;BME280_temperature;BME280_humidity;BME280_pressure;Samples;Min_cycle;Max_cycle;Signal;HPM_P1;HPM_P2
2022/09/04 00:03:00;;;;;;;2.50;1.03;;;15.70;58.80;;;;;;4926054;29;20314;-67
2022/09/04 00:05:44;;;;;;;5.30;1.30;;;15.70;58.70;;;;;;4923181;28;20301;-68
2022/09/04 00:08:19;;;;;;;4.70;1.10;;;15.70;58.70;;;;;;4924008;29;20299;-67
2022/09/04 00:11:19;;;;;;;3.30;0.90;;;15.70;58.60;;;;;;4912394;29;20296;-67
2022/09/04 00:13:59;;;;;;;3.77;1.70;;;15.70;58.80;;;;;;4911504;28;20039;-67
2022/09/04 00:16:41;;;;;;;1.87;0.80;;;15.70;58.70;;;;;;4923184;28;20291;-67
2022/09/04 00:19:42;;;;;;;3.13;1.03;;;15.70;58.90;;;;;;4929968;29;20307;-67
2022/09/04 00:22:25;;;;;;;2.30;1.43;;;15.60;58.60;;;;;;4921740;29;20403;-67
2022/09/04 00:25:07;;;;;;;3.37;0.93;;;15.60;58.60;;;;;;4915958;28;20437;-67
2022/09/04 00:27:44;;;;;;;2.80;1.10;;;15.60;58.50;;;;;;4931713;29;20294;-67
2022/09/04 00:30:19;;;;;;;3.47;1.17;;;15.50;58.40;;;;;;4910933;29;20283;-67
2022/09/04 00:32:53;;;;;;;4.13;1.37;;;15.50;58.40;;;;;;4914271;29;20291;-67
2022/09/04 00:35:30;;;;;;;2.50;0.68;;;15.50;58.30;;;;;;4905146;28;20293;-68
2022/09/04 00:38:14;;;;;;;3.70;1.03;;;15.50;58.40;;;;;;4904975;28;20043;-68
2022/09/04 00:40:43;;;;;;;1.93;1.00;;;15.50;58.50;;;;;;4930406;29;20299;-68
2022/09/04 00:43:46;;;;;;;2.60;0.90;;;15.40;58.50;;;;;;4930423;29;20287;-68
2022/09/04 00:46:20;;;;;;;3.13;1.33;;;15.40;58.40;;;;;;4929450;29;20373;-67
2022/09/04 00:49:01;;;;;;;1.95;0.90;;;15.40;58.10;;;;;;4903241;29;20299;-67
2022/09/04 00:51:54;;;;;;;2.83;1.13;;;15.40;58.30;;;;;;4923159;29;20035;-67
2022/09/04 00:54:57;;;;;;;2.73;1.20;;;15.30;58.40;;;;;;4939407;28;20298;-68
2022/09/04 00:57:41;;;;;;;2.83;0.90;;;15.30;58.40;;;;;;4907121;28;21046;-67
2022/09/04 01:00:14;;;;;;;1.83;1.00;;;15.30;58.30;;;;;;4935064;29;20287;-68
2022/09/04 01:03:16;;;;;;;3.00;1.50;;;15.20;58.30;;;;;;4931132;29;20302;-67
2022/09/04 01:05:56;;;;;;;2.70;1.20;;;15.20;58.70;;;;;;4930108;29;20283;-67
2022/09/04 01:08:39;;;;;;;2.00;1.07;;;15.20;58.50;;;;;;4910398;29;20361;-67
2022/09/04 01:11:13;;;;;;;3.73;1.20;;;15.10;58.80;;;;;;4926745;29;20788;-67
2022/09/04 01:13:50;;;;;;;2.77;1.20;;;15.10;58.60;;;;;;4922702;29;20302;-68
2022/09/04 01:16:23;;;;;;;2.27;1.00;;;15.10;58.50;;;;;;4930451;29;20331;-68
2022/09/04 01:19:01;;;;;;;2.17;1.07;;;15.00;58.70;;;;;;4930575;29;20480;-67
2022/09/04 01:21:57;;;;;;;2.63;1.27;;;15.00;59.00;;;;;;4914893;28;20664;-67
2022/09/04 01:24:38;;;;;;;4.33;1.23;;;15.00;59.20;;;;;;4929198;29;20295;-67
2022/09/04 01:27:29;;;;;;;3.37;1.43;;;14.90;59.10;;;;;;4925843;29;20287;-67
2022/09/04 01:30:12;;;;;;;3.00;1.40;;;14.90;59.50;;;;;;4918869;29;20739;-67
2022/09/04 01:33:17;;;;;;;2.40;1.23;;;14.80;59.70;;;;;;4922015;28;20292;-67
2022/09/04 01:35:57;;;;;;;4.33;1.10;;;14.80;59.50;;;;;;4922010;28;20861;-67
2022/09/04 01:38:56;;;;;;;2.90;1.20;;;14.80;59.90;;;;;;4911458;29;20564;-67
2022/09/04 01:41:47;;;;;;;1.97;1.30;;;14.70;59.40;;;;;;4870633;29;20307;-67
2022/09/04 01:44:13;;;;;;;2.37;1.40;;;14.70;59.80;;;;;;4927296;28;20345;-67
2022/09/04 01:46:57;;;;;;;2.23;1.17;;;14.70;59.60;;;;;;4912219;29;20295;-67
2022/09/04 01:49:54;;;;;;;1.87;1.20;;;14.70;59.80;;;;;;4921150;29;20404;-67
2022/09/04 01:52:29;;;;;;;2.77;1.13;;;14.60;59.80;;;;;;4900573;28;20291;-67
2022/09/04 01:55:00;;;;;;;;;;;14.60;60.00;;;;;;4930596;29;20287;-67
2022/09/04 01:57:34;;;;;;;3.87;1.50;;;14.60;60.40;;;;;;4924540;29;19923;-67
2022/09/04 02:00:07;;;;;;;2.90;1.88;;;14.50;60.00;;;;;;4923841;29;20292;-67
2022/09/04 02:02:40;;;;;;;3.23;1.70;;;14.50;60.30;;;;;;4931155;29;20043;-67
2022/09/04 02:05:47;;;;;;;3.33;1.40;;;14.40;60.40;;;;;;4911681;29;20294;-67
2022/09/04 02:08:27;;;;;;;4.37;1.53;;;14.40;60.60;;;;;;4904002;29;20298;-67
2022/09/04 02:11:07;;;;;;;3.00;1.23;;;14.40;60.70;;;;;;4912662;29;20382;-67
2022/09/04 02:14:05;;;;;;;3.90;1.50;;;14.30;60.40;;;;;;4913747;29;20296;-67
2022/09/04 02:16:59;;;;;;;2.77;1.40;;;14.30;60.80;;;;;;4912400;28;20314;-67
2022/09/04 02:19:30;;;;;;;3.83;1.27;;;14.20;60.70;;;;;;4925736;29;20290;-67
2022/09/04 02:22:14;;;;;;;4.57;1.63;;;14.20;60.80;;;;;;4922141;29;20303;-67
2022/09/04 02:25:19;;;;;;;3.57;1.60;;;14.20;60.80;;;;;;4932650;28;20303;-67
2022/09/04 02:27:44;;;;;;;3.13;1.37;;;14.20;60.80;;;;;;4906985;28;20377;-67
2022/09/04 02:30:17;;;;;;;2.00;1.23;;;14.10;61.30;;;;;;4923397;29;20427;-67
2022/09/04 02:33:14;;;;;;;2.37;1.37;;;14.10;61.20;;;;;;4909744;28;20268;-67
2022/09/04 02:35:58;;;;;;;5.50;1.50;;;14.10;61.30;;;;;;4910537;29;20291;-67
2022/09/04 02:38:44;;;;;;;3.20;1.47;;;14.10;61.60;;;;;;4926616;29;20295;-67
2022/09/04 02:41:25;;;;;;;2.30;1.13;;;14.10;61.50;;;;;;4931164;28;20314;-67
2022/09/04 02:43:51;;;;;;;4.60;1.50;;;14.00;61.30;;;;;;4927144;29;20383;-67
2022/09/04 02:46:35;;;;;;;5.03;1.17;;;14.00;61.40;;;;;;4933672;29;20682;-67
2022/09/04 02:49:12;;;;;;;2.88;1.35;;;14.00;61.90;;;;;;4912181;28;20130;-67
2022/09/04 02:52:11;;;;;;;4.77;2.00;;;14.00;61.30;;;;;;4925866;29;20047;-67
2022/09/04 02:55:03;;;;;;;3.03;1.40;;;14.00;61.50;;;;;;4930367;29;20306;-67
2022/09/04 02:57:38;;;;;;;2.63;1.60;;;14.00;61.60;;;;;;4949323;28;20413;-67
2022/09/04 03:00:15;;;;;;;2.23;1.27;;;14.00;61.90;;;;;;4923183;29;20652;-67
2022/09/04 03:02:53;;;;;;;2.50;1.60;;;13.90;62.00;;;;;;4925598;29;20917;-67
2022/09/04 03:05:23;;;;;;;4.60;1.40;;;13.90;61.90;;;;;;4924598;28;20685;-67
2022/09/04 03:08:14;;;;;;;4.03;1.70;;;13.90;62.10;;;;;;4929812;29;20415;-67
2022/09/04 03:10:49;;;;;;;3.07;1.77;;;13.90;62.10;;;;;;4932461;29;20306;-67
2022/09/04 03:13:27;;;;;;;3.43;1.50;;;13.90;62.30;;;;;;4930691;28;20318;-67
2022/09/04 03:16:17;;;;;;;2.30;1.50;;;13.90;62.20;;;;;;4927452;29;20366;-67
2022/09/04 03:19:04;;;;;;;4.80;1.93;;;13.90;62.60;;;;;;4917259;29;20290;-67
2022/09/04 03:21:38;;;;;;;2.80;1.50;;;13.90;62.40;;;;;;4913362;28;20369;-67
2022/09/04 03:24:26;;;;;;;2.90;1.55;;;13.90;62.60;;;;;;4913389;29;20295;-67
2022/09/04 03:26:55;;;;;;;2.80;1.93;;;13.80;62.20;;;;;;4908926;29;20047;-67
2022/09/04 03:29:35;;;;;;;3.80;1.60;;;13.80;62.50;;;;;;4935818;29;20791;-67
2022/09/04 03:32:04;;;;;;;3.30;1.47;;;13.80;62.40;;;;;;4932159;29;20730;-67
2022/09/04 03:35:00;;;;;;;2.50;1.70;;;13.80;62.50;;;;;;4928291;28;20382;-67
2022/09/04 03:37:31;;;;;;;;;;;13.80;62.70;;;;;;4931533;29;20362;-67
2022/09/04 03:40:19;;;;;;;2.63;1.70;;;13.80;63.20;;;;;;4911272;29;19968;-67
2022/09/04 03:43:03;;;;;;;4.67;1.70;;;13.80;62.70;;;;;;4910500;28;20357;-67
2022/09/04 03:45:44;;;;;;;3.07;1.70;;;13.70;62.70;;;;;;4933782;29;20302;-67
2022/09/04 03:48:23;;;;;;;2.43;1.63;;;13.70;62.80;;;;;;4929708;29;20280;-67
2022/09/04 03:51:03;;;;;;;3.07;1.60;;;13.70;62.90;;;;;;4922992;28;20287;-67
2022/09/04 03:53:36;;;;;;;3.20;1.80;;;13.70;63.00;;;;;;4921792;28;20293;-67
2022/09/04 03:56:27;;;;;;;4.90;1.70;;;13.70;62.90;;;;;;4931589;29;20369;-67
2022/09/04 03:59:33;;;;;;;3.10;2.00;;;13.70;63.10;;;;;;4916974;28;20314;-67
2022/09/04 04:02:15;;;;;;;3.33;1.83;;;13.60;63.50;;;;;;4931533;28;20310;-67
2022/09/04 04:05:02;;;;;;;3.22;1.73;;;13.60;63.40;;;;;;4912724;29;20318;-67
2022/09/04 04:07:53;;;;;;;3.27;1.60;;;13.60;63.70;;;;;;4931408;29;20047;-67
2022/09/04 04:10:35;;;;;;;2.63;1.93;;;13.60;63.40;;;;;;4930941;28;20305;-67
2022/09/04 04:13:13;;;;;;;2.33;1.87;;;13.60;63.60;;;;;;4907502;29;20379;-67
2022/09/04 04:16:39;;;;;;;3.33;1.93;;;13.60;63.70;;;;;;4932509;28;20330;-67
2022/09/04 04:19:34;;;;;;;4.10;2.00;;;13.60;63.80;;;;;;4911536;29;20299;-67
2022/09/04 04:22:08;;;;;;;3.50;1.97;;;13.60;64.20;;;;;;4841733;29;20460;-67
2022/09/04 04:24:53;;;;;;;2.17;1.70;;;13.60;63.90;;;;;;4927785;28;20330;-67
2022/09/04 04:27:43;;;;;;;5.07;2.40;;;13.50;64.00;;;;;;4921242;29;20291;-67
2022/09/04 04:30:15;;;;;;;4.80;1.83;;;13.50;63.80;;;;;;4929891;29;20106;-67
2022/09/04 04:32:59;;;;;;;3.63;2.20;;;13.50;63.90;;;;;;4930410;28;20386;-67
2022/09/04 04:35:38;;;;;;;6.10;2.40;;;13.50;64.00;;;;;;4912678;29;20283;-67
2022/09/04 04:38:17;;;;;;;3.37;2.17;;;13.50;64.10;;;;;;4926120;29;20291;-67
2022/09/04 04:41:01;;;;;;;4.00;2.23;;;13.50;63.90;;;;;;4919178;29;20532;-67
2022/09/04 04:43:53;;;;;;;3.70;2.00;;;13.50;64.00;;;;;;4920082;29;20299;-67
2022/09/04 04:46:47;;;;;;;1.93;1.63;;;13.50;64.10;;;;;;4931328;29;20367;-67
2022/09/04 04:49:36;;;;;;;2.97;1.70;;;13.50;64.30;;;;;;4928574;28;20294;-67
2022/09/04 04:52:22;;;;;;;2.87;1.70;;;13.50;64.40;;;;;;4905310;29;20295;-67
2022/09/04 04:55:12;;;;;;;2.70;1.90;;;13.50;64.20;;;;;;4913827;28;20382;-67
2022/09/04 04:58:16;;;;;;;5.83;2.17;;;13.50;64.20;;;;;;4920428;29;20283;-67
2022/09/04 05:00:51;;;;;;;5.00;2.17;;;13.50;64.40;;;;;;4928261;29;20310;-67
2022/09/04 05:03:41;;;;;;;2.78;1.85;;;13.50;64.00;;;;;;4921483;29;20308;-67
2022/09/04 05:06:20;;;;;;;3.60;1.83;;;13.60;64.10;;;;;;4908796;29;20098;-67
2022/09/04 05:09:08;;;;;;;3.60;1.90;;;13.60;64.10;;;;;;4930963;29;20323;-67
2022/09/04 05:11:52;;;;;;;4.00;2.00;;;13.60;64.50;;;;;;4903968;28;20306;-67
2022/09/04 05:14:56;;;;;;;4.07;1.90;;;13.60;64.50;;;;;;4927029;29;20303;-67
2022/09/04 05:17:22;;;;;;;4.53;2.20;;;13.60;64.50;;;;;;4924598;29;20282;-67
2022/09/04 05:19:48;;;;;;;3.30;2.07;;;13.70;64.40;;;;;;4942131;28;20450;-67
2022/09/04 05:22:32;;;;;;;3.07;2.40;;;13.70;64.40;;;;;;4925365;29;20887;-67
2022/09/04 05:25:13;;;;;;;8.70;2.63;;;13.70;64.10;;;;;;4931821;28;20039;-67
2022/09/04 05:28:14;;;;;;;4.37;2.00;;;13.80;64.50;;;;;;4912487;29;20319;-68
2022/09/04 05:31:08;;;;;;;4.07;1.80;;;13.90;64.40;;;;;;4931015;29;20297;-67
2022/09/04 05:33:49;;;;;;;4.10;2.00;;;13.90;64.20;;;;;;4926314;29;20283;-67
2022/09/04 05:36:42;;;;;;;7.20;2.33;;;14.00;64.30;;;;;;4921453;28;20297;-67
2022/09/04 05:39:39;;;;;;;4.50;2.17;;;14.00;64.40;;;;;;4925314;29;20349;-67
2022/09/04 05:42:20;;;;;;;3.23;1.90;;;14.10;64.50;;;;;;4923609;29;20807;-67
2022/09/04 05:45:07;;;;;;;4.57;2.40;;;14.10;64.50;;;;;;4933373;29;20275;-67
2022/09/04 05:47:56;;;;;;;4.93;2.30;;;14.20;64.30;;;;;;4900947;28;20315;-68
2022/09/04 05:50:55;;;;;;;3.17;2.20;;;14.30;64.30;;;;;;4905453;29;20370;-67
2022/09/04 05:54:05;;;;;;;4.00;2.23;;;14.30;64.60;;;;;;4930385;29;20287;-67
2022/09/04 05:56:57;;;;;;;5.23;2.13;;;14.40;64.60;;;;;;4910727;29;20291;-68
2022/09/04 05:59:55;;;;;;;4.20;2.40;;;14.50;64.50;;;;;;4917759;29;20295;-68
2022/09/04 06:02:46;;;;;;;4.10;2.17;;;14.50;64.30;;;;;;4876865;29;20334;-68
2022/09/04 06:05:25;;;;;;;2.97;2.27;;;14.50;64.30;;;;;;4925433;28;20299;-68
2022/09/04 06:08:31;;;;;;;3.87;2.07;;;14.60;64.20;;;;;;4925393;29;20283;-68
2022/09/04 06:11:23;;;;;;;5.10;2.53;;;14.60;64.50;;;;;;4913230;29;20660;-68
2022/09/04 06:14:10;;;;;;;12.50;3.20;;;14.70;64.70;;;;;;4915534;29;20308;-67
2022/09/04 06:16:48;;;;;;;4.93;2.30;;;14.80;64.50;;;;;;4927574;28;20305;-67
2022/09/04 06:19:32;;;;;;;4.33;1.90;;;14.80;64.20;;;;;;4925280;29;20386;-68
2022/09/04 06:22:25;;;;;;;3.53;2.00;;;15.00;64.20;;;;;;4921306;29;20314;-67
2022/09/04 06:25:35;;;;;;;3.90;2.40;;;15.00;64.00;;;;;;4912432;28;20302;-67
2022/09/04 06:28:12;;;;;;;3.30;2.03;;;15.20;63.70;;;;;;4909993;28;20291;-67
2022/09/04 06:31:19;;;;;;;3.83;2.47;;;15.30;63.50;;;;;;4911008;29;20846;-68
2022/09/04 06:34:03;;;;;;;6.07;2.20;;;15.40;63.50;;;;;;4923670;29;20317;-68
2022/09/04 06:36:50;;;;;;;4.07;2.10;;;15.50;63.20;;;;;;4926064;29;20302;-68
2022/09/04 06:39:36;;;;;;;4.10;2.20;;;15.70;63.00;;;;;;4929492;28;20279;-67
2022/09/04 06:42:07;;;;;;;3.10;2.10;;;15.80;62.80;;;;;;4921113;29;20315;-67
2022/09/04 06:45:08;;;;;;;4.23;2.70;;;15.90;62.60;;;;;;4917671;29;20287;-67
2022/09/04 06:47:49;;;;;;;4.00;2.00;;;16.00;62.60;;;;;;4913002;28;20382;-68
2022/09/04 06:50:40;;;;;;;2.73;2.33;;;16.10;62.60;;;;;;4930648;29;20287;-68
2022/09/04 06:53:16;;;;;;;3.57;2.13;;;16.30;62.50;;;;;;4923775;29;20294;-68
2022/09/04 06:56:21;;;;;;;4.63;2.23;;;16.40;62.40;;;;;;4909192;29;20291;-68
2022/09/04 06:59:00;;;;;;;2.23;2.00;;;16.60;62.00;;;;;;4868364;29;20630;-68
2022/09/04 07:02:07;;;;;;;7.50;2.27;;;16.70;61.70;;;;;;4914303;29;20325;-68
2022/09/04 07:04:55;;;;;;;5.97;1.93;;;16.90;61.80;;;;;;4927586;29;20283;-67
2022/09/04 07:07:51;;;;;;;5.77;2.20;;;17.00;61.40;;;;;;4920173;29;20287;-68
2022/09/04 07:10:32;;;;;;;3.37;2.27;;;17.20;60.90;;;;;;4928919;28;20744;-68
2022/09/04 07:13:36;;;;;;;9.27;2.00;;;17.30;60.60;;;;;;4928452;29;20305;-68
2022/09/04 07:16:16;;;;;;;2.37;2.17;;;17.40;60.50;;;;;;4908360;29;20295;-68
2022/09/04 07:19:09;;;;;;;3.50;2.23;;;17.50;60.00;;;;;;4924574;29;20329;-67
2022/09/04 07:21:51;;;;;;;2.43;2.00;;;17.60;59.50;;;;;;4901720;28;20303;-67
2022/09/04 07:24:47;;;;;;;3.27;2.00;;;17.70;59.80;;;;;;4905208;29;20295;-68
2022/09/04 07:27:37;;;;;;;6.03;2.40;;;17.80;59.80;;;;;;4931233;29;20290;-68
2022/09/04 07:30:09;;;;;;;3.30;1.90;;;17.90;59.30;;;;;;4933287;29;20456;-68
2022/09/04 07:32:50;;;;;;;3.73;2.10;;;18.00;59.10;;;;;;4918388;28;20374;-68
2022/09/04 07:35:28;;;;;;;6.13;2.23;;;18.10;58.90;;;;;;4932707;29;20318;-68
2022/09/04 07:38:25;;;;;;;6.23;2.03;;;18.10;58.40;;;;;;4913666;28;20302;-68
2022/09/04 07:41:08;;;;;;;4.67;2.30;;;18.20;58.40;;;;;;4930827;28;20424;-68
2022/09/04 07:43:42;;;;;;;3.07;1.97;;;18.30;58.40;;;;;;4927540;29;20691;-68
2022/09/04 07:46:42;;;;;;;5.68;2.50;;;18.40;57.80;;;;;;4906363;29;20797;-68
2022/09/04 07:49:14;;;;;;;5.37;1.97;;;18.50;58.00;;;;;;4928972;28;20035;-68
2022/09/04 07:52:01;;;;;;;3.20;2.10;;;18.60;57.90;;;;;;4916332;29;20743;-68
2022/09/04 07:54:51;;;;;;;6.17;2.50;;;18.80;58.00;;;;;;4916212;29;20287;-68
2022/09/04 07:57:38;;;;;;;4.43;2.17;;;18.90;57.40;;;;;;4929947;28;20647;-68
2022/09/04 08:00:12;;;;;;;5.20;2.03;;;19.10;57.60;;;;;;4930262;29;20303;-68
2022/09/04 08:03:16;;;;;;;4.53;2.00;;;19.20;57.30;;;;;;4932004;29;20656;-68
2022/09/04 08:06:07;;;;;;;3.67;2.00;;;19.30;57.10;;;;;;4928063;29;20643;-68
2022/09/04 08:09:11;;;;;;;5.40;2.27;;;19.50;57.00;;;;;;4905986;28;20374;-68
2022/09/04 08:11:47;;;;;;;4.63;2.00;;;19.70;56.90;;;;;;4909289;28;20669;-68
2022/09/04 08:14:30;;;;;;;4.03;2.33;;;19.80;56.80;;;;;;4932264;29;20322;-68
2022/09/04 08:17:24;;;;;;;3.30;2.43;;;20.00;56.60;;;;;;4908285;28;20294;-68
2022/09/04 08:20:15;;;;;;;3.17;2.17;;;20.10;56.30;;;;;;4929490;28;20291;-68
2022/09/04 08:23:07;;;;;;;3.03;2.30;;;20.20;55.80;;;;;;4913446;29;20309;-68
2022/09/04 08:26:13;;;;;;;3.13;2.17;;;20.30;56.10;;;;;;4914650;29;20287;-68
2022/09/04 08:29:07;;;;;;;4.85;2.17;;;20.50;55.80;;;;;;4932200;29;20279;-68
2022/09/04 08:32:04;;;;;;;3.17;2.30;;;20.60;55.40;;;;;;4930029;29;20035;-68
2022/09/04 08:34:52;;;;;;;4.67;2.60;;;20.80;55.70;;;;;;4928405;29;20294;-68
2022/09/04 08:37:32;;;;;;;2.77;2.50;;;21.00;55.50;;;;;;4930626;29;20298;-67
2022/09/04 08:40:10;;;;;;;6.00;2.70;;;21.10;55.50;;;;;;4939057;28;21363;-67
2022/09/04 08:42:56;;;;;;;3.47;2.57;;;21.30;55.40;;;;;;4926658;28;20340;-67
2022/09/04 08:45:45;;;;;;;3.57;2.50;;;21.50;55.10;;;;;;4930303;29;20445;-67
2022/09/04 08:48:40;;;;;;;3.50;2.37;;;21.70;55.10;;;;;;4930370;29;20419;-67
2022/09/04 08:51:40;;;;;;;4.45;2.17;;;21.90;54.90;;;;;;4906525;29;20047;-67
2022/09/04 08:54:34;;;;;;;5.40;2.20;;;22.10;54.00;;;;;;4912695;28;20046;-67
2022/09/04 08:57:38;;;;;;;4.00;2.20;;;22.30;54.00;;;;;;4930040;28;20040;-67
2022/09/04 09:00:28;;;;;;;3.70;2.17;;;22.40;54.00;;;;;;4914305;29;20067;-68
2022/09/04 09:03:08;;;;;;;5.00;2.60;;;22.60;53.70;;;;;;4927466;29;20154;-68
2022/09/04 09:06:05;;;;;;;3.40;2.20;;;22.70;53.40;;;;;;4911772;29;20118;-68
2022/09/04 09:08:43;;;;;;;2.93;2.27;;;22.90;52.90;;;;;;4929922;28;20098;-67
2022/09/04 09:11:30;;;;;;;4.33;2.70;;;23.00;53.00;;;;;;4928484;28;20078;-68
2022/09/04 09:14:34;;;;;;;3.43;2.43;;;23.10;52.40;;;;;;4909805;29;20440;-67
2022/09/04 09:17:04;;;;;;;4.60;2.17;;;23.20;52.10;;;;;;4909343;28;20130;-67
2022/09/04 09:19:56;;;;;;;4.60;2.30;;;23.20;52.80;;;;;;4929280;29;20071;-67
2022/09/04 09:22:39;;;;;;;3.67;2.03;;;23.30;52.50;;;;;;4940690;28;20047;-67
2022/09/04 09:25:14;;;;;;;3.87;1.63;;;23.40;52.00;;;;;;4922743;28;20535;-68
2022/09/04 09:27:55;;;;;;;2.63;2.03;;;23.50;52.20;;;;;;4927724;28;20377;-68
2022/09/04 09:30:22;;;;;;;2.93;2.30;;;23.60;52.00;;;;;;4911429;28;20039;-68
2022/09/04 09:33:11;;;;;;;3.97;2.17;;;23.70;52.00;;;;;;4895351;28;20131;-68
2022/09/04 09:35:58;;;;;;;2.50;1.90;;;23.80;51.60;;;;;;4911463;29;20090;-68
2022/09/04 09:38:59;;;;;;;3.60;2.03;;;23.90;51.70;;;;;;4929215;28;20055;-68
2022/09/04 09:41:58;;;;;;;2.43;1.80;;;24.00;51.40;;;;;;4920019;28;20051;-68
2022/09/04 09:44:46;;;;;;;2.93;1.80;;;24.10;51.00;;;;;;4929177;28;20065;-68
2022/09/04 09:47:11;;;;;;;3.10;2.37;;;24.30;51.10;;;;;;4912178;28;20039;-68
2022/09/04 09:50:03;;;;;;;3.57;1.80;;;24.30;50.80;;;;;;4927865;29;20563;-68
2022/09/04 09:52:57;;;;;;;2.20;1.70;;;24.30;50.90;;;;;;4896776;28;20560;-68
2022/09/04 09:56:14;;;;;;;3.60;2.20;;;24.50;50.70;;;;;;4924724;28;20035;-68
2022/09/04 09:59:17;;;;;;;5.03;2.10;;;24.50;50.30;;;;;;4916796;28;20047;-68
2022/09/04 10:02:02;;;;;;;3.50;2.00;;;24.70;50.30;;;;;;4929955;29;20619;-67
2022/09/04 10:04:49;;;;;;;2.55;1.80;;;24.80;50.10;;;;;;4927417;29;20058;-68
2022/09/04 10:07:28;;;;;;;4.07;2.10;;;24.90;49.80;;;;;;4932059;29;20039;-68
2022/09/04 10:10:19;;;;;;;3.70;1.83;;;24.90;49.50;;;;;;4942116;28;20031;-68
2022/09/04 10:13:31;;;;;;;2.63;1.50;;;25.00;49.60;;;;;;4921702;28;20089;-68
2022/09/04 10:16:21;;;;;;;2.93;2.07;;;24.90;49.60;;;;;;4913473;29;20444;-68
2022/09/04 10:19:25;;;;;;;3.53;1.80;;;25.00;49.60;;;;;;4934777;29;20047;-68
2022/09/04 10:22:13;;;;;;;3.10;1.50;;;25.20;50.00;;;;;;4932744;28;20397;-68
2022/09/04 10:24:48;;;;;;;1.90;1.57;;;25.40;49.30;;;;;;4927208;28;20054;-68
2022/09/04 10:27:25;;;;;;;3.10;1.70;;;25.60;49.20;;;;;;4903185;28;20058;-68
2022/09/04 10:30:01;;;;;;;1.87;1.50;;;25.80;49.10;;;;;;4912540;29;20048;-68
2022/09/04 10:32:33;;;;;;;4.17;1.50;;;25.90;48.20;;;;;;4929502;28;20435;-68
2022/09/04 10:35:46;;;;;;;2.70;1.60;;;25.90;48.50;;;;;;4923137;29;20142;-68
2022/09/04 10:40:34;;;;;;;4.27;1.50;;;26.00;48.20;;;;;;4904438;29;20044;-68
2022/09/04 10:41:38;;;;;;;1.73;1.20;;;26.10;48.00;;;;;;4890515;29;20135;-69
2022/09/04 10:44:37;;;;;;;2.27;1.50;;;26.20;48.30;;;;;;4926747;29;20054;-68
2022/09/04 10:47:15;;;;;;;3.77;1.50;;;26.30;48.00;;;;;;4928269;29;20043;-69
2022/09/04 10:50:02;;;;;;;2.20;1.50;;;26.40;47.60;;;;;;4903132;29;20075;-69
2022/09/04 10:53:04;;;;;;;6.20;1.37;;;26.60;47.70;;;;;;4931225;29;20090;-69
2022/09/04 10:55:58;;;;;;;2.17;1.30;;;26.80;47.10;;;;;;4911850;28;20135;-69
2022/09/04 10:58:56;;;;;;;2.93;1.60;;;26.90;46.80;;;;;;4927158;29;20052;-69
2022/09/04 11:01:35;;;;;;;3.07;1.50;;;27.00;46.40;;;;;;4926899;29;20087;-69
2022/09/04 11:04:12;;;;;;;4.77;1.30;;;27.00;46.30;;;;;;4922659;29;20039;-69
2022/09/04 11:06:48;;;;;;;3.30;1.47;;;27.10;46.90;;;;;;4907893;29;20047;-69
2022/09/04 11:09:40;;;;;;;3.03;1.20;;;27.30;46.80;;;;;;4929270;29;20047;-69
2022/09/04 11:12:35;;;;;;;1.60;1.33;;;27.40;46.40;;;;;;4905830;28;20114;-68
2022/09/04 11:15:46;;;;;;;3.25;1.30;;;27.50;45.50;;;;;;4925309;28;20043;-69
2022/09/04 11:18:21;;;;;;;2.80;1.20;;;27.60;45.50;;;;;;4921454;28;20079;-69
2022/09/04 11:21:40;;;;;;;2.25;1.10;;;27.60;45.50;;;;;;4920906;28;20117;-68
2022/09/04 11:24:52;;;;;;;1.53;0.80;;;27.70;45.40;;;;;;4920957;28;20047;-68
2022/09/04 11:28:00;;;;;;;3.17;1.00;;;27.70;44.90;;;;;;4890911;29;20056;-69
2022/09/04 11:30:35;;;;;;;2.30;1.00;;;27.70;45.50;;;;;;4907520;28;20553;-68
2022/09/04 11:33:21;;;;;;;;;;;27.70;45.70;;;;;;4936989;28;20118;-68
2022/09/04 11:36:11;;;;;;;2.13;1.30;;;27.70;45.60;;;;;;4929310;28;19946;-68
2022/09/04 11:39:10;;;;;;;1.90;1.07;;;27.70;45.20;;;;;;4922511;29;20047;-69
2022/09/04 11:42:15;;;;;;;1.40;1.00;;;27.70;45.10;;;;;;4925173;29;20051;-69
2022/09/04 11:45:07;;;;;;;1.75;1.25;;;27.70;45.10;;;;;;4916138;28;20055;-68
2022/09/04 11:47:58;;;;;;;1.40;1.13;;;27.80;45.20;;;;;;4905847;28;20393;-69
2022/09/04 11:50:36;;;;;;;1.30;0.90;;;27.80;44.90;;;;;;4922705;28;20567;-68
2022/09/04 11:53:32;;;;;;;1.73;1.23;;;27.80;45.40;;;;;;4907335;29;20592;-69
2022/09/04 11:56:04;;;;;;;2.53;0.90;;;28.00;45.60;;;;;;4921536;29;20064;-69
2022/09/04 11:58:57;;;;;;;1.60;1.00;;;28.10;45.30;;;;;;4924074;29;20471;-70
2022/09/04 12:01:38;;;;;;;1.73;1.10;;;28.30;45.00;;;;;;4922429;28;20063;-69
2022/09/04 12:04:32;;;;;;;1.90;1.27;;;28.50;44.60;;;;;;4921917;29;20433;-68
2022/09/04 12:07:19;;;;;;;2.27;1.13;;;28.60;44.60;;;;;;4920869;28;20050;-68
2022/09/04 12:10:03;;;;;;;3.27;1.00;;;28.70;43.90;;;;;;4905205;28;20448;-68
2022/09/04 12:12:47;;;;;;;1.92;1.10;;;28.60;44.00;;;;;;4925884;29;20390;-69
2022/09/04 12:15:16;;;;;;;1.87;1.03;;;28.70;43.90;;;;;;4910785;29;20797;-69
2022/09/04 12:18:09;;;;;;;1.93;1.30;;;28.70;44.10;;;;;;4926458;29;20058;-69
2022/09/04 12:21:12;;;;;;;1.43;1.00;;;28.70;44.00;;;;;;4910953;29;20041;-68
2022/09/04 12:24:06;;;;;;;1.00;0.80;;;28.70;43.90;;;;;;4912998;29;20106;-68
2022/09/04 12:26:54;;;;;;;2.70;1.03;;;28.90;43.90;;;;;;4928110;29;20105;-68
2022/09/04 12:29:28;;;;;;;2.83;1.17;;;29.00;43.50;;;;;;4924460;28;20039;-68
2022/09/04 12:32:00;;;;;;;;;;;29.00;43.60;;;;;;4913033;29;20427;-68
2022/09/04 12:34:29;;;;;;;1.17;0.93;;;29.00;43.50;;;;;;4940165;28;19984;-68
2022/09/04 12:37:28;;;;;;;2.57;1.13;;;29.10;43.80;;;;;;4920067;29;20079;-68
2022/09/04 12:39:54;;;;;;;4.17;1.00;;;29.30;43.60;;;;;;4927306;29;20360;-69
2022/09/04 12:42:26;;;;;;;1.00;0.90;;;29.40;42.70;;;;;;4925838;29;20471;-68
2022/09/04 12:44:56;;;;;;;1.80;1.20;;;29.40;42.70;;;;;;4928953;29;20047;-68
2022/09/04 12:47:57;;;;;;;1.83;1.20;;;29.30;42.90;;;;;;4918613;28;20334;-68
2022/09/04 12:50:40;;;;;;;1.90;1.40;;;29.20;42.80;;;;;;4904982;29;20526;-68
2022/09/04 12:53:30;;;;;;;1.40;1.10;;;29.20;43.10;;;;;;4926685;29;20125;-68
2022/09/04 12:56:09;;;;;;;1.57;1.20;;;29.20;43.20;;;;;;4926076;29;20078;-68
2022/09/04 12:59:05;;;;;;;1.53;1.00;;;29.10;43.70;;;;;;4925990;28;20141;-68
2022/09/04 13:01:58;;;;;;;1.97;1.10;;;29.10;43.80;;;;;;4925214;28;21155;-68
2022/09/04 13:04:56;;;;;;;2.77;1.00;;;29.10;42.90;;;;;;4909608;29;20059;-68
2022/09/04 13:07:33;;;;;;;1.97;1.00;;;29.10;43.30;;;;;;4919861;29;20404;-68
2022/09/04 13:10:31;;;;;;;1.60;1.37;;;29.00;43.10;;;;;;4926474;28;20051;-68
2022/09/04 13:13:32;;;;;;;1.30;1.20;;;29.00;43.80;;;;;;4933631;28;20113;-68
2022/09/04 13:16:24;;;;;;;1.83;1.20;;;29.10;43.50;;;;;;4928393;29;20594;-68
2022/09/04 13:19:22;;;;;;;1.47;1.10;;;29.20;43.70;;;;;;4912206;29;20050;-68
2022/09/04 13:22:09;;;;;;;2.53;0.83;;;29.30;43.00;;;;;;4913071;28;20042;-68
2022/09/04 13:24:38;;;;;;;2.80;1.27;;;29.50;43.30;;;;;;4926231;28;20508;-68
2022/09/04 13:27:16;;;;;;;1.80;1.23;;;29.60;43.00;;;;;;4902521;29;20077;-68
2022/09/04 13:30:04;;;;;;;1.30;1.10;;;29.80;42.90;;;;;;4927774;28;20045;-68
2022/09/04 13:32:46;;;;;;;2.20;1.07;;;29.80;42.20;;;;;;4925539;29;20109;-68
2022/09/04 13:35:37;;;;;;;1.30;0.90;;;29.90;42.10;;;;;;4908021;29;20674;-69
2022/09/04 13:38:03;;;;;;;2.20;1.20;;;30.00;42.10;;;;;;4920403;29;20510;-69
2022/09/04 13:41:03;;;;;;;1.40;0.90;;;29.90;41.90;;;;;;4920969;29;20051;-68
2022/09/04 13:43:39;;;;;;;2.10;0.90;;;29.80;42.40;;;;;;4920947;29;20054;-68
2022/09/04 13:46:17;;;;;;;1.97;1.10;;;29.90;42.40;;;;;;4926430;29;20511;-68
2022/09/04 13:49:04;;;;;;;3.97;1.20;;;29.90;42.10;;;;;;4917916;29;20576;-68
2022/09/04 13:51:36;;;;;;;1.77;1.33;;;29.90;42.00;;;;;;4837337;29;20064;-68
2022/09/04 13:54:24;;;;;;;5.07;1.73;;;29.90;41.70;;;;;;4907395;29;20040;-68
2022/09/04 13:57:15;;;;;;;1.63;1.10;;;29.80;42.10;;;;;;4890242;29;20123;-68
2022/09/04 13:59:43;;;;;;;2.20;1.23;;;29.60;41.80;;;;;;4901516;29;20047;-68
2022/09/04 14:02:13;;;;;;;3.27;1.20;;;29.50;42.50;;;;;;4905072;29;20564;-68
2022/09/04 14:04:44;;;;;;;1.97;1.10;;;29.50;42.70;;;;;;4905311;29;20138;-69
2022/09/04 14:07:28;;;;;;;2.47;1.07;;;29.50;42.30;;;;;;4904564;29;20107;-68
2022/09/04 14:09:59;;;;;;;1.80;1.60;;;29.50;42.10;;;;;;4902643;29;20428;-68
2022/09/04 14:12:46;;;;;;;1.83;1.37;;;29.60;42.30;;;;;;4911479;29;20055;-69
2022/09/04 14:16:02;;;;;;;2.60;1.33;;;29.70;42.90;;;;;;4903646;29;20098;-68
2022/09/04 14:18:59;;;;;;;2.07;1.20;;;29.80;41.20;;;;;;4900825;29;20067;-68
2022/09/04 14:21:44;;;;;;;1.97;1.50;;;29.80;41.70;;;;;;4884115;29;20072;-68
2022/09/04 14:24:22;;;;;;;2.57;1.37;;;29.90;41.80;;;;;;4906570;29;20035;-68
2022/09/04 14:27:02;;;;;;;2.73;1.60;;;29.90;41.30;;;;;;4906846;29;20036;-69
2022/09/04 14:29:43;;;;;;;1.73;1.40;;;29.90;41.10;;;;;;4899890;29;20042;-68